sensor_id;sensor_type;location;lat;lon;timestamp;P1;durP1;ratioP1;P2;durP2;ratioP2
71095;SDS011;58753;49.440;11.126;2022-07-15T00:01:10;3.92;;;1.27;;
71095;SDS011;58753;49.440;11.126;2022-07-15T00:03:35;4.37;;;2.10;;
71095;SDS011;58753;49.440;11.126;2022-07-15T00:06:00;4.87;;;1.50;;
71095;SDS011;58753;49.440;11.126;2022-07-15T00:08:26;4.07;;;1.75;;
71095;SDS011;58753;49.440;11.126;2022-07-15T00:19:13;3.58;;;1.02;;
71095;SDS011;58753;49.440;11.126;2022-07-15T00:21:38;2.97;;;1.13;;
71095;SDS011;58753;49.440;11.126;2022-07-15T00:24:03;2.03;;;1.33;;
71095;SDS011;58753;49.440;11.126;2022-07-15T00:47:20;4.32;;;1.15;;
71095;SDS011;58753;49.440;11.126;2022-07-15T00:49:45;4.70;;;1.30;;
71095;SDS011;58753;49.440;11.126;2022-07-15T00:54:37;4.72;;;1.90;;
71095;SDS011;58753;49.440;11.126;2022-07-15T00:57:03;3.72;;;1.20;;
71095;SDS011;58753;49.440;11.126;2022-07-15T00:59:31;4.68;;;1.20;;
71095;SDS011;58753;49.440;11.126;2022-07-15T01:04:23;2.47;;;1.10;;
71095;SDS011;58753;49.440;11.126;2022-07-15T01:06:48;4.70;;;1.70;;
71095;SDS011;58753;49.440;11.126;2022-07-15T01:22:25;3.72;;;1.30;;
71095;SDS011;58753;49.440;11.126;2022-07-15T01:24:51;5.13;;;1.83;;
71095;SDS011;58753;49.440;11.126;2022-07-15T01:29:41;3.95;;;1.50;;
71095;SDS011;58753;49.440;11.126;2022-07-15T01:35:13;5.18;;;1.83;;
71095;SDS011;58753;49.440;11.126;2022-07-15T01:40:04;3.10;;;1.35;;
71095;SDS011;58753;49.440;11.126;2022-07-15T01:48:26;3.50;;;1.70;;
71095;SDS011;58753;49.440;11.126;2022-07-15T01:51:10;4.10;;;2.05;;
71095;SDS011;58753;49.440;11.126;2022-07-15T01:53:35;5.43;;;1.77;;
71095;SDS011;58753;49.440;11.126;2022-07-15T02:01:24;3.20;;;1.48;;
71095;SDS011;58753;49.440;11.126;2022-07-15T02:06:16;5.57;;;2.08;;
71095;SDS011;58753;49.440;11.126;2022-07-15T02:08:41;2.57;;;1.60;;
71095;SDS011;58753;49.440;11.126;2022-07-15T02:11:07;6.40;;;2.25;;
71095;SDS011;58753;49.440;11.126;2022-07-15T02:13:32;3.27;;;1.50;;
71095;SDS011;58753;49.440;11.126;2022-07-15T02:22:12;3.67;;;2.20;;
71095;SDS011;58753;49.440;11.126;2022-07-15T02:24:37;2.87;;;1.67;;
71095;SDS011;58753;49.440;11.126;2022-07-15T02:27:03;4.03;;;1.90;;
71095;SDS011;58753;49.440;11.126;2022-07-15T02:29:28;3.80;;;1.60;;
71095;SDS011;58753;49.440;11.126;2022-07-15T02:35:23;5.27;;;2.00;;
71095;SDS011;58753;49.440;11.126;2022-07-15T02:37:48;4.05;;;1.95;;
71095;SDS011;58753;49.440;11.126;2022-07-15T02:40:14;4.53;;;1.97;;
71095;SDS011;58753;49.440;11.126;2022-07-15T02:42:45;5.78;;;2.08;;
71095;SDS011;58753;49.440;11.126;2022-07-15T02:45:15;3.00;;;1.92;;
71095;SDS011;58753;49.440;11.126;2022-07-15T02:58:26;3.23;;;1.73;;
71095;SDS011;58753;49.440;11.126;2022-07-15T03:00:53;4.78;;;2.40;;
71095;SDS011;58753;49.440;11.126;2022-07-15T03:03:19;3.63;;;1.95;;
71095;SDS011;58753;49.440;11.126;2022-07-15T03:05:44;3.30;;;1.80;;
71095;SDS011;58753;49.440;11.126;2022-07-15T03:08:10;5.05;;;2.05;;
71095;SDS011;58753;49.440;11.126;2022-07-15T03:10:36;3.90;;;1.47;;
71095;SDS011;58753;49.440;11.126;2022-07-15T03:13:01;5.30;;;2.50;;
71095;SDS011;58753;49.440;11.126;2022-07-15T03:26:14;4.35;;;2.17;;
71095;SDS011;58753;49.440;11.126;2022-07-15T03:28:39;3.53;;;2.17;;
71095;SDS011;58753;49.440;11.126;2022-07-15T03:31:05;6.60;;;2.30;;
71095;SDS011;58753;49.440;11.126;2022-07-15T03:41:50;4.45;;;2.28;;
71095;SDS011;58753;49.440;11.126;2022-07-15T03:44:16;3.70;;;1.98;;
71095;SDS011;58753;49.440;11.126;2022-07-15T03:46:42;3.92;;;2.08;;
71095;SDS011;58753;49.440;11.126;2022-07-15T03:49:10;5.22;;;2.08;;
71095;SDS011;58753;49.440;11.126;2022-07-15T03:51:35;4.00;;;1.90;;
71095;SDS011;58753;49.440;11.126;2022-07-15T04:02:33;3.97;;;2.10;;
71095;SDS011;58753;49.440;11.126;2022-07-15T04:07:23;4.20;;;2.03;;
71095;SDS011;58753;49.440;11.126;2022-07-15T04:15:11;3.72;;;1.98;;
71095;SDS011;58753;49.440;11.126;2022-07-15T04:22:29;7.47;;;2.50;;
71095;SDS011;58753;49.440;11.126;2022-07-15T04:28:25;3.13;;;1.95;;
71095;SDS011;58753;49.440;11.126;2022-07-15T04:30:51;4.67;;;1.60;;
71095;SDS011;58753;49.440;11.126;2022-07-15T04:35:42;4.43;;;1.50;;
71095;SDS011;58753;49.440;11.126;2022-07-15T04:40:32;4.40;;;1.70;;
71095;SDS011;58753;49.440;11.126;2022-07-15T04:42:58;5.77;;;2.00;;
71095;SDS011;58753;49.440;11.126;2022-07-15T04:45:24;7.05;;;2.55;;
71095;SDS011;58753;49.440;11.126;2022-07-15T04:47:50;4.47;;;2.30;;
71095;SDS011;58753;49.440;11.126;2022-07-15T04:53:16;6.18;;;2.28;;
71095;SDS011;58753;49.440;11.126;2022-07-15T04:55:42;4.63;;;2.08;;
71095;SDS011;58753;49.440;11.126;2022-07-15T04:58:08;5.43;;;2.30;;
71095;SDS011;58753;49.440;11.126;2022-07-15T05:00:33;3.87;;;2.33;;
71095;SDS011;58753;49.440;11.126;2022-07-15T05:13:15;5.18;;;3.20;;
71095;SDS011;58753;49.440;11.126;2022-07-15T05:15:41;5.30;;;2.57;;
71095;SDS011;58753;49.440;11.126;2022-07-15T05:18:06;12.67;;;3.30;;
71095;SDS011;58753;49.440;11.126;2022-07-15T05:20:32;4.78;;;2.42;;
71095;SDS011;58753;49.440;11.126;2022-07-15T05:22:57;4.73;;;2.83;;
71095;SDS011;58753;49.440;11.126;2022-07-15T05:25:23;5.40;;;1.83;;
71095;SDS011;58753;49.440;11.126;2022-07-15T05:27:48;5.22;;;2.50;;
71095;SDS011;58753;49.440;11.126;2022-07-15T05:30:14;5.13;;;2.20;;
71095;SDS011;58753;49.440;11.126;2022-07-15T05:36:44;5.22;;;2.38;;
71095;SDS011;58753;49.440;11.126;2022-07-15T05:39:09;6.77;;;2.57;;
71095;SDS011;58753;49.440;11.126;2022-07-15T05:41:35;5.90;;;2.40;;
71095;SDS011;58753;49.440;11.126;2022-07-15T05:44:00;7.30;;;2.20;;
71095;SDS011;58753;49.440;11.126;2022-07-15T05:46:26;7.87;;;3.90;;
71095;SDS011;58753;49.440;11.126;2022-07-15T05:48:51;8.20;;;2.07;;
71095;SDS011;58753;49.440;11.126;2022-07-15T05:51:17;3.35;;;2.03;;
71095;SDS011;58753;49.440;11.126;2022-07-15T05:53:43;5.97;;;1.77;;
71095;SDS011;58753;49.440;11.126;2022-07-15T05:56:09;3.33;;;1.90;;
71095;SDS011;58753;49.440;11.126;2022-07-15T05:58:34;3.60;;;2.00;;
71095;SDS011;58753;49.440;11.126;2022-07-15T06:01:00;4.63;;;2.43;;
71095;SDS011;58753;49.440;11.126;2022-07-15T06:03:26;4.45;;;2.10;;
71095;SDS011;58753;49.440;11.126;2022-07-15T06:05:51;4.50;;;1.80;;
71095;SDS011;58753;49.440;11.126;2022-07-15T06:08:16;4.23;;;1.70;;
71095;SDS011;58753;49.440;11.126;2022-07-15T06:10:42;4.22;;;1.60;;
71095;SDS011;58753;49.440;11.126;2022-07-15T06:13:08;1.93;;;1.23;;
71095;SDS011;58753;49.440;11.126;2022-07-15T06:15:34;4.20;;;1.60;;
71095;SDS011;58753;49.440;11.126;2022-07-15T06:17:59;3.23;;;1.73;;
71095;SDS011;58753;49.440;11.126;2022-07-15T06:20:25;4.65;;;1.60;;
71095;SDS011;58753;49.440;11.126;2022-07-15T06:22:50;2.63;;;1.37;;
71095;SDS011;58753;49.440;11.126;2022-07-15T06:25:16;4.60;;;1.90;;
71095;SDS011;58753;49.440;11.126;2022-07-15T06:27:41;4.87;;;1.37;;
71095;SDS011;58753;49.440;11.126;2022-07-15T06:30:07;3.10;;;1.10;;
71095;SDS011;58753;49.440;11.126;2022-07-15T06:32:33;3.08;;;1.23;;
71095;SDS011;58753;49.440;11.126;2022-07-15T06:34:58;4.37;;;1.30;;
71095;SDS011;58753;49.440;11.126;2022-07-15T06:37:24;3.95;;;1.52;;
71095;SDS011;58753;49.440;11.126;2022-07-15T06:39:50;3.73;;;1.47;;
71095;SDS011;58753;49.440;11.126;2022-07-15T06:42:15;3.90;;;1.23;;
71095;SDS011;58753;49.440;11.126;2022-07-15T06:44:41;2.63;;;1.40;;
71095;SDS011;58753;49.440;11.126;2022-07-15T06:47:06;3.97;;;1.40;;
71095;SDS011;58753;49.440;11.126;2022-07-15T06:49:35;3.22;;;1.30;;
71095;SDS011;58753;49.440;11.126;2022-07-15T06:52:01;3.03;;;1.07;;
71095;SDS011;58753;49.440;11.126;2022-07-15T06:54:26;5.03;;;1.20;;
71095;SDS011;58753;49.440;11.126;2022-07-15T06:56:52;2.78;;;1.23;;
71095;SDS011;58753;49.440;11.126;2022-07-15T06:59:17;3.03;;;1.47;;
71095;SDS011;58753;49.440;11.126;2022-07-15T07:01:43;4.65;;;1.52;;
71095;SDS011;58753;49.440;11.126;2022-07-15T07:04:08;7.00;;;1.50;;
71095;SDS011;58753;49.440;11.126;2022-07-15T07:06:34;3.20;;;1.23;;
71095;SDS011;58753;49.440;11.126;2022-07-15T07:08:59;2.93;;;1.23;;
71095;SDS011;58753;49.440;11.126;2022-07-15T07:11:25;4.93;;;1.53;;
71095;SDS011;58753;49.440;11.126;2022-07-15T07:13:51;3.93;;;1.47;;
71095;SDS011;58753;49.440;11.126;2022-07-15T07:16:16;6.07;;;1.80;;
71095;SDS011;58753;49.440;11.126;2022-07-15T07:18:42;3.53;;;1.70;;
71095;SDS011;58753;49.440;11.126;2022-07-15T07:21:10;3.50;;;1.20;;
71095;SDS011;58753;49.440;11.126;2022-07-15T07:23:36;2.83;;;1.50;;
71095;SDS011;58753;49.440;11.126;2022-07-15T07:26:04;5.45;;;1.38;;
71095;SDS011;58753;49.440;11.126;2022-07-15T07:28:30;2.40;;;0.80;;
71095;SDS011;58753;49.440;11.126;2022-07-15T07:30:57;3.73;;;1.47;;
71095;SDS011;58753;49.440;11.126;2022-07-15T07:33:23;2.97;;;0.90;;
71095;SDS011;58753;49.440;11.126;2022-07-15T07:35:49;5.07;;;1.37;;
71095;SDS011;58753;49.440;11.126;2022-07-15T07:38:14;4.20;;;1.45;;
71095;SDS011;58753;49.440;11.126;2022-07-15T07:40:39;2.90;;;1.00;;
71095;SDS011;58753;49.440;11.126;2022-07-15T07:43:05;4.03;;;1.27;;
71095;SDS011;58753;49.440;11.126;2022-07-15T07:45:31;2.35;;;0.93;;
71095;SDS011;58753;49.440;11.126;2022-07-15T07:47:56;1.93;;;1.20;;
71095;SDS011;58753;49.440;11.126;2022-07-15T07:55:46;3.05;;;0.90;;
71095;SDS011;58753;49.440;11.126;2022-07-15T07:58:12;4.00;;;0.90;;
71095;SDS011;58753;49.440;11.126;2022-07-15T08:00:40;4.00;;;1.00;;
71095;SDS011;58753;49.440;11.126;2022-07-15T08:03:06;4.03;;;1.00;;
71095;SDS011;58753;49.440;11.126;2022-07-15T08:05:32;1.73;;;1.00;;
71095;SDS011;58753;49.440;11.126;2022-07-15T08:19:23;3.55;;;0.98;;
71095;SDS011;58753;49.440;11.126;2022-07-15T08:21:49;4.45;;;1.33;;
71095;SDS011;58753;49.440;11.126;2022-07-15T08:24:16;4.72;;;1.38;;
71095;SDS011;58753;49.440;11.126;2022-07-15T08:26:41;3.13;;;1.00;;
71095;SDS011;58753;49.440;11.126;2022-07-15T08:29:07;1.90;;;1.00;;
71095;SDS011;58753;49.440;11.126;2022-07-15T08:31:33;3.40;;;0.93;;
71095;SDS011;58753;49.440;11.126;2022-07-15T08:34:00;3.15;;;1.10;;
71095;SDS011;58753;49.440;11.126;2022-07-15T08:36:25;3.70;;;1.00;;
71095;SDS011;58753;49.440;11.126;2022-07-15T08:38:51;4.00;;;1.13;;
71095;SDS011;58753;49.440;11.126;2022-07-15T08:41:16;1.83;;;1.00;;
71095;SDS011;58753;49.440;11.126;2022-07-15T08:43:42;4.90;;;1.23;;
71095;SDS011;58753;49.440;11.126;2022-07-15T08:46:07;2.08;;;1.25;;
71095;SDS011;58753;49.440;11.126;2022-07-15T09:00:12;3.03;;;1.00;;
71095;SDS011;58753;49.440;11.126;2022-07-15T09:02:38;3.97;;;1.00;;
71095;SDS011;58753;49.440;11.126;2022-07-15T09:05:15;3.55;;;0.88;;
71095;SDS011;58753;49.440;11.126;2022-07-15T09:13:09;6.57;;;1.48;;
71095;SDS011;58753;49.440;11.126;2022-07-15T09:15:39;2.90;;;1.02;;
71095;SDS011;58753;49.440;11.126;2022-07-15T09:18:12;2.10;;;0.98;;
71095;SDS011;58753;49.440;11.126;2022-07-15T09:20:40;4.07;;;0.90;;
71095;SDS011;58753;49.440;11.126;2022-07-15T09:23:07;3.17;;;1.48;;
71095;SDS011;58753;49.440;11.126;2022-07-15T09:25:34;3.20;;;1.15;;
71095;SDS011;58753;49.440;11.126;2022-07-15T09:28:04;2.33;;;1.00;;
71095;SDS011;58753;49.440;11.126;2022-07-15T09:30:35;4.55;;;1.05;;
71095;SDS011;58753;49.440;11.126;2022-07-15T09:33:24;2.42;;;0.85;;
71095;SDS011;58753;49.440;11.126;2022-07-15T09:36:13;4.82;;;1.35;;
71095;SDS011;58753;49.440;11.126;2022-07-15T09:41:19;3.53;;;1.20;;
71095;SDS011;58753;49.440;11.126;2022-07-15T09:43:58;5.35;;;2.88;;
71095;SDS011;58753;49.440;11.126;2022-07-15T09:46:41;19.87;;;9.67;;
71095;SDS011;58753;49.440;11.126;2022-07-15T09:49:34;6.65;;;3.20;;
71095;SDS011;58753;49.440;11.126;2022-07-15T09:52:03;4.15;;;2.92;;
71095;SDS011;58753;49.440;11.126;2022-07-15T09:54:33;2.95;;;1.70;;
71095;SDS011;58753;49.440;11.126;2022-07-15T09:57:04;4.80;;;0.90;;
71095;SDS011;58753;49.440;11.126;2022-07-15T09:59:31;1.63;;;0.80;;
71095;SDS011;58753;49.440;11.126;2022-07-15T10:01:57;4.97;;;1.10;;
71095;SDS011;58753;49.440;11.126;2022-07-15T10:04:24;3.60;;;1.45;;
71095;SDS011;58753;49.440;11.126;2022-07-15T10:06:53;2.67;;;1.38;;
71095;SDS011;58753;49.440;11.126;2022-07-15T10:09:22;2.83;;;0.93;;
71095;SDS011;58753;49.440;11.126;2022-07-15T10:11:50;3.97;;;1.23;;
71095;SDS011;58753;49.440;11.126;2022-07-15T10:22:34;2.20;;;1.13;;
71095;SDS011;58753;49.440;11.126;2022-07-15T10:28:00;2.50;;;1.13;;
71095;SDS011;58753;49.440;11.126;2022-07-15T10:30:47;3.50;;;1.40;;
71095;SDS011;58753;49.440;11.126;2022-07-15T10:33:41;6.43;;;1.80;;
71095;SDS011;58753;49.440;11.126;2022-07-15T10:36:07;3.27;;;1.30;;
71095;SDS011;58753;49.440;11.126;2022-07-15T10:38:34;3.40;;;1.20;;
71095;SDS011;58753;49.440;11.126;2022-07-15T10:46:12;3.75;;;1.15;;
71095;SDS011;58753;49.440;11.126;2022-07-15T10:48:42;3.80;;;0.95;;
71095;SDS011;58753;49.440;11.126;2022-07-15T10:51:11;2.83;;;0.97;;
71095;SDS011;58753;49.440;11.126;2022-07-15T10:53:45;2.73;;;1.13;;
71095;SDS011;58753;49.440;11.126;2022-07-15T10:56:32;3.03;;;1.42;;
71095;SDS011;58753;49.440;11.126;2022-07-15T10:59:16;2.28;;;0.88;;
71095;SDS011;58753;49.440;11.126;2022-07-15T11:04:26;1.75;;;1.13;;
71095;SDS011;58753;49.440;11.126;2022-07-15T11:14:59;2.30;;;1.15;;
71095;SDS011;58753;49.440;11.126;2022-07-15T11:19:55;2.07;;;1.03;;
71095;SDS011;58753;49.440;11.126;2022-07-15T11:22:25;4.07;;;1.43;;
71095;SDS011;58753;49.440;11.126;2022-07-15T11:24:53;3.17;;;1.20;;
71095;SDS011;58753;49.440;11.126;2022-07-15T11:27:20;2.67;;;1.45;;
71095;SDS011;58753;49.440;11.126;2022-07-15T11:32:13;4.10;;;1.25;;
71095;SDS011;58753;49.440;11.126;2022-07-15T11:34:40;2.67;;;1.40;;
71095;SDS011;58753;49.440;11.126;2022-07-15T11:37:16;1.83;;;1.13;;
71095;SDS011;58753;49.440;11.126;2022-07-15T11:39:45;3.58;;;1.17;;
71095;SDS011;58753;49.440;11.126;2022-07-15T11:42:21;3.08;;;1.23;;
71095;SDS011;58753;49.440;11.126;2022-07-15T11:45:08;2.85;;;1.40;;
71095;SDS011;58753;49.440;11.126;2022-07-15T11:47:35;3.50;;;1.20;;
71095;SDS011;58753;49.440;11.126;2022-07-15T11:50:15;4.37;;;1.33;;
71095;SDS011;58753;49.440;11.126;2022-07-15T12:04:00;2.90;;;1.60;;
71095;SDS011;58753;49.440;11.126;2022-07-15T12:06:27;3.43;;;1.20;;
71095;SDS011;58753;49.440;11.126;2022-07-15T12:08:55;2.67;;;1.45;;
71095;SDS011;58753;49.440;11.126;2022-07-15T12:11:32;2.30;;;1.30;;
71095;SDS011;58753;49.440;11.126;2022-07-15T12:14:03;2.53;;;1.10;;
71095;SDS011;58753;49.440;11.126;2022-07-15T12:16:34;3.33;;;1.50;;
71095;SDS011;58753;49.440;11.126;2022-07-15T12:19:05;3.17;;;1.27;;
71095;SDS011;58753;49.440;11.126;2022-07-15T12:21:32;1.88;;;1.00;;
71095;SDS011;58753;49.440;11.126;2022-07-15T12:23:59;2.83;;;1.60;;
71095;SDS011;58753;49.440;11.126;2022-07-15T12:26:26;2.72;;;1.23;;
71095;SDS011;58753;49.440;11.126;2022-07-15T12:28:56;2.30;;;0.95;;
71095;SDS011;58753;49.440;11.126;2022-07-15T12:31:23;3.25;;;1.50;;
71095;SDS011;58753;49.440;11.126;2022-07-15T12:33:50;2.53;;;1.70;;
71095;SDS011;58753;49.440;11.126;2022-07-15T12:36:17;1.90;;;1.07;;
71095;SDS011;58753;49.440;11.126;2022-07-15T12:39:02;1.98;;;1.08;;
71095;SDS011;58753;49.440;11.126;2022-07-15T12:41:28;1.95;;;1.35;;
71095;SDS011;58753;49.440;11.126;2022-07-15T12:54:22;2.92;;;1.50;;
71095;SDS011;58753;49.440;11.126;2022-07-15T12:56:51;1.92;;;1.42;;
71095;SDS011;58753;49.440;11.126;2022-07-15T12:59:17;2.23;;;1.57;;
71095;SDS011;58753;49.440;11.126;2022-07-15T13:01:43;2.80;;;1.30;;
71095;SDS011;58753;49.440;11.126;2022-07-15T13:04:09;2.73;;;1.50;;
71095;SDS011;58753;49.440;11.126;2022-07-15T13:06:35;3.07;;;1.50;;
71095;SDS011;58753;49.440;11.126;2022-07-15T13:09:00;3.07;;;1.23;;
71095;SDS011;58753;49.440;11.126;2022-07-15T13:11:26;2.50;;;1.43;;
71095;SDS011;58753;49.440;11.126;2022-07-15T13:27:17;2.13;;;1.27;;
71095;SDS011;58753;49.440;11.126;2022-07-15T13:29:42;6.57;;;1.37;;
71095;SDS011;58753;49.440;11.126;2022-07-15T13:32:08;2.85;;;1.10;;
71095;SDS011;58753;49.440;11.126;2022-07-15T13:34:33;2.53;;;1.23;;
71095;SDS011;58753;49.440;11.126;2022-07-15T13:36:58;2.90;;;1.10;;
71095;SDS011;58753;49.440;11.126;2022-07-15T13:39:24;2.63;;;1.20;;
71095;SDS011;58753;49.440;11.126;2022-07-15T13:41:49;2.53;;;1.83;;
71095;SDS011;58753;49.440;11.126;2022-07-15T13:44:15;2.73;;;1.50;;
71095;SDS011;58753;49.440;11.126;2022-07-15T13:46:40;3.87;;;1.10;;
71095;SDS011;58753;49.440;11.126;2022-07-15T13:49:05;3.90;;;1.30;;
71095;SDS011;58753;49.440;11.126;2022-07-15T13:51:31;2.63;;;1.20;;
71095;SDS011;58753;49.440;11.126;2022-07-15T13:53:57;2.53;;;1.42;;
71095;SDS011;58753;49.440;11.126;2022-07-15T14:06:03;3.00;;;1.33;;
71095;SDS011;58753;49.440;11.126;2022-07-15T14:08:28;3.37;;;1.20;;
71095;SDS011;58753;49.440;11.126;2022-07-15T14:10:54;2.13;;;1.40;;
71095;SDS011;58753;49.440;11.126;2022-07-15T14:13:19;3.00;;;1.10;;
71095;SDS011;58753;49.440;11.126;2022-07-15T14:15:45;2.17;;;0.90;;
71095;SDS011;58753;49.440;11.126;2022-07-15T14:20:36;3.65;;;1.50;;
71095;SDS011;58753;49.440;11.126;2022-07-15T14:23:01;1.87;;;1.10;;
71095;SDS011;58753;49.440;11.126;2022-07-15T14:25:27;2.55;;;1.08;;
71095;SDS011;58753;49.440;11.126;2022-07-15T14:27:53;2.17;;;1.50;;
71095;SDS011;58753;49.440;11.126;2022-07-15T14:32:44;3.23;;;0.73;;
71095;SDS011;58753;49.440;11.126;2022-07-15T14:35:09;2.80;;;1.00;;
71095;SDS011;58753;49.440;11.126;2022-07-15T14:49:23;4.78;;;1.50;;
71095;SDS011;58753;49.440;11.126;2022-07-15T14:51:49;3.53;;;1.23;;
71095;SDS011;58753;49.440;11.126;2022-07-15T14:54:15;6.03;;;1.50;;
71095;SDS011;58753;49.440;11.126;2022-07-15T14:56:40;3.13;;;1.77;;
71095;SDS011;58753;49.440;11.126;2022-07-15T14:59:06;2.90;;;1.77;;
71095;SDS011;58753;49.440;11.126;2022-07-15T15:01:31;3.58;;;1.75;;
71095;SDS011;58753;49.440;11.126;2022-07-15T15:03:56;2.70;;;1.50;;
71095;SDS011;58753;49.440;11.126;2022-07-15T15:06:22;3.30;;;1.30;;
71095;SDS011;58753;49.440;11.126;2022-07-15T15:21:13;3.45;;;1.60;;
71095;SDS011;58753;49.440;11.126;2022-07-15T15:23:38;2.97;;;1.40;;
71095;SDS011;58753;49.440;11.126;2022-07-15T15:26:04;2.63;;;1.60;;
71095;SDS011;58753;49.440;11.126;2022-07-15T15:28:57;2.75;;;1.38;;
71095;SDS011;58753;49.440;11.126;2022-07-15T15:31:23;2.08;;;1.15;;
71095;SDS011;58753;49.440;11.126;2022-07-15T15:33:51;2.83;;;1.48;;
71095;SDS011;58753;49.440;11.126;2022-07-15T15:36:17;3.17;;;2.00;;
71095;SDS011;58753;49.440;11.126;2022-07-15T15:38:42;5.17;;;1.30;;
71095;SDS011;58753;49.440;11.126;2022-07-15T15:41:08;3.63;;;1.42;;
71095;SDS011;58753;49.440;11.126;2022-07-15T15:43:33;3.43;;;1.73;;
71095;SDS011;58753;49.440;11.126;2022-07-15T15:46:00;5.53;;;1.50;;
71095;SDS011;58753;49.440;11.126;2022-07-15T15:48:25;3.28;;;1.70;;
71095;SDS011;58753;49.440;11.126;2022-07-15T15:50:51;3.83;;;1.10;;
71095;SDS011;58753;49.440;11.126;2022-07-15T15:53:17;2.70;;;1.10;;
71095;SDS011;58753;49.440;11.126;2022-07-15T15:55:42;2.60;;;1.33;;
71095;SDS011;58753;49.440;11.126;2022-07-15T15:58:08;2.40;;;1.47;;
71095;SDS011;58753;49.440;11.126;2022-07-15T16:00:33;3.78;;;1.67;;
71095;SDS011;58753;49.440;11.126;2022-07-15T16:03:00;2.07;;;1.07;;
71095;SDS011;58753;49.440;11.126;2022-07-15T16:05:26;2.43;;;1.63;;
71095;SDS011;58753;49.440;11.126;2022-07-15T16:07:51;2.65;;;1.45;;
71095;SDS011;58753;49.440;11.126;2022-07-15T16:10:17;2.60;;;1.43;;
71095;SDS011;58753;49.440;11.126;2022-07-15T16:12:42;2.80;;;1.70;;
71095;SDS011;58753;49.440;11.126;2022-07-15T16:15:08;3.23;;;1.80;;
71095;SDS011;58753;49.440;11.126;2022-07-15T16:17:35;3.05;;;1.50;;
71095;SDS011;58753;49.440;11.126;2022-07-15T16:20:00;2.70;;;1.23;;
71095;SDS011;58753;49.440;11.126;2022-07-15T16:22:26;2.90;;;1.37;;
71095;SDS011;58753;49.440;11.126;2022-07-15T16:25:10;4.00;;;1.45;;
71095;SDS011;58753;49.440;11.126;2022-07-15T16:27:35;2.50;;;1.33;;
71095;SDS011;58753;49.440;11.126;2022-07-15T16:30:01;2.58;;;1.42;;
71095;SDS011;58753;49.440;11.126;2022-07-15T16:32:27;2.63;;;1.55;;
71095;SDS011;58753;49.440;11.126;2022-07-15T16:34:52;3.87;;;0.97;;
71095;SDS011;58753;49.440;11.126;2022-07-15T16:37:18;2.07;;;1.47;;
71095;SDS011;58753;49.440;11.126;2022-07-15T16:39:43;4.35;;;1.20;;
71095;SDS011;58753;49.440;11.126;2022-07-15T16:42:09;2.80;;;1.73;;
71095;SDS011;58753;49.440;11.126;2022-07-15T16:44:34;2.17;;;1.53;;
71095;SDS011;58753;49.440;11.126;2022-07-15T16:47:00;2.27;;;1.27;;
71095;SDS011;58753;49.440;11.126;2022-07-15T16:49:25;2.17;;;1.00;;
71095;SDS011;58753;49.440;11.126;2022-07-15T17:02:52;2.67;;;1.60;;
71095;SDS011;58753;49.440;11.126;2022-07-15T17:05:18;4.88;;;2.20;;
71095;SDS011;58753;49.440;11.126;2022-07-15T17:07:44;4.27;;;2.10;;
71095;SDS011;58753;49.440;11.126;2022-07-15T17:10:09;3.17;;;1.40;;
71095;SDS011;58753;49.440;11.126;2022-07-15T17:12:35;4.80;;;1.60;;
71095;SDS011;58753;49.440;11.126;2022-07-15T17:15:00;2.77;;;1.23;;
71095;SDS011;58753;49.440;11.126;2022-07-15T17:17:26;2.03;;;1.20;;
71095;SDS011;58753;49.440;11.126;2022-07-15T17:19:51;3.40;;;1.20;;
71095;SDS011;58753;49.440;11.126;2022-07-15T17:22:17;2.40;;;1.03;;
71095;SDS011;58753;49.440;11.126;2022-07-15T17:24:42;3.70;;;1.77;;
71095;SDS011;58753;49.440;11.126;2022-07-15T17:27:07;5.27;;;2.80;;
71095;SDS011;58753;49.440;11.126;2022-07-15T17:29:33;10.32;;;5.13;;
71095;SDS011;58753;49.440;11.126;2022-07-15T17:31:58;16.97;;;7.63;;
71095;SDS011;58753;49.440;11.126;2022-07-15T17:34:23;20.67;;;10.90;;
71095;SDS011;58753;49.440;11.126;2022-07-15T17:36:49;46.87;;;27.03;;
71095;SDS011;58753;49.440;11.126;2022-07-15T17:39:14;22.77;;;13.65;;
71095;SDS011;58753;49.440;11.126;2022-07-15T17:41:40;17.07;;;10.73;;
71095;SDS011;58753;49.440;11.126;2022-07-15T17:44:05;4.70;;;2.93;;
71095;SDS011;58753;49.440;11.126;2022-07-15T17:46:30;3.73;;;1.63;;
71095;SDS011;58753;49.440;11.126;2022-07-15T17:48:56;5.20;;;2.20;;
71095;SDS011;58753;49.440;11.126;2022-07-15T17:51:21;3.17;;;1.60;;
71095;SDS011;58753;49.440;11.126;2022-07-15T17:56:12;2.60;;;1.20;;
71095;SDS011;58753;49.440;11.126;2022-07-15T17:58:37;3.20;;;1.30;;
71095;SDS011;58753;49.440;11.126;2022-07-15T18:01:03;3.03;;;1.20;;
71095;SDS011;58753;49.440;11.126;2022-07-15T18:03:29;1.77;;;1.15;;
71095;SDS011;58753;49.440;11.126;2022-07-15T18:05:54;3.15;;;1.30;;
71095;SDS011;58753;49.440;11.126;2022-07-15T18:08:20;3.27;;;1.60;;
71095;SDS011;58753;49.440;11.126;2022-07-15T18:10:45;2.80;;;1.20;;
71095;SDS011;58753;49.440;11.126;2022-07-15T18:13:11;2.40;;;1.05;;
71095;SDS011;58753;49.440;11.126;2022-07-15T18:15:37;2.72;;;1.50;;
71095;SDS011;58753;49.440;11.126;2022-07-15T18:18:03;3.60;;;1.20;;
71095;SDS011;58753;49.440;11.126;2022-07-15T18:20:28;1.83;;;1.10;;
71095;SDS011;58753;49.440;11.126;2022-07-15T18:22:54;4.03;;;1.47;;
71095;SDS011;58753;49.440;11.126;2022-07-15T18:25:20;2.53;;;1.25;;
71095;SDS011;58753;49.440;11.126;2022-07-15T18:27:45;2.27;;;1.20;;
71095;SDS011;58753;49.440;11.126;2022-07-15T18:30:11;2.87;;;1.20;;
71095;SDS011;58753;49.440;11.126;2022-07-15T18:32:39;2.37;;;1.27;;
71095;SDS011;58753;49.440;11.126;2022-07-15T18:35:06;2.17;;;0.82;;
71095;SDS011;58753;49.440;11.126;2022-07-15T18:37:33;2.15;;;1.17;;
71095;SDS011;58753;49.440;11.126;2022-07-15T18:40:00;2.35;;;1.40;;
71095;SDS011;58753;49.440;11.126;2022-07-15T18:42:25;5.25;;;1.20;;
71095;SDS011;58753;49.440;11.126;2022-07-15T18:44:51;1.87;;;1.10;;
71095;SDS011;58753;49.440;11.126;2022-07-15T18:47:16;1.90;;;1.20;;
71095;SDS011;58753;49.440;11.126;2022-07-15T18:49:41;2.70;;;1.10;;
71095;SDS011;58753;49.440;11.126;2022-07-15T18:52:07;5.37;;;1.30;;
71095;SDS011;58753;49.440;11.126;2022-07-15T18:54:32;3.22;;;1.25;;
71095;SDS011;58753;49.440;11.126;2022-07-15T18:56:57;2.33;;;1.33;;
71095;SDS011;58753;49.440;11.126;2022-07-15T18:59:23;3.30;;;1.37;;
71095;SDS011;58753;49.440;11.126;2022-07-15T19:01:48;3.07;;;1.60;;
71095;SDS011;58753;49.440;11.126;2022-07-15T19:04:14;1.88;;;1.15;;
71095;SDS011;58753;49.440;11.126;2022-07-15T19:06:39;2.60;;;1.50;;
71095;SDS011;58753;49.440;11.126;2022-07-15T19:09:05;3.78;;;1.75;;
71095;SDS011;58753;49.440;11.126;2022-07-15T19:11:31;4.47;;;1.37;;
71095;SDS011;58753;49.440;11.126;2022-07-15T19:13:56;3.33;;;1.60;;
71095;SDS011;58753;49.440;11.126;2022-07-15T19:16:22;2.33;;;1.30;;
71095;SDS011;58753;49.440;11.126;2022-07-15T19:18:47;2.63;;;1.30;;
71095;SDS011;58753;49.440;11.126;2022-07-15T19:21:13;2.58;;;1.23;;
71095;SDS011;58753;49.440;11.126;2022-07-15T19:23:40;5.63;;;1.17;;
71095;SDS011;58753;49.440;11.126;2022-07-15T19:26:05;4.57;;;1.50;;
71095;SDS011;58753;49.440;11.126;2022-07-15T19:28:31;3.50;;;1.57;;
71095;SDS011;58753;49.440;11.126;2022-07-15T19:30:56;3.25;;;1.48;;
71095;SDS011;58753;49.440;11.126;2022-07-15T19:33:22;4.63;;;1.73;;
71095;SDS011;58753;49.440;11.126;2022-07-15T19:35:49;2.72;;;1.52;;
71095;SDS011;58753;49.440;11.126;2022-07-15T19:38:15;5.50;;;1.40;;
71095;SDS011;58753;49.440;11.126;2022-07-15T19:40:41;2.90;;;1.30;;
71095;SDS011;58753;49.440;11.126;2022-07-15T19:43:08;3.67;;;1.80;;